createdAt,value
2023-03-29T00:01:41.929Z,4.93
2023-03-29T00:04:10.116Z,4.95
2023-03-29T00:06:37.793Z,4.94
2023-03-29T00:09:05.873Z,4.96
2023-03-29T00:11:32.763Z,4.94
2023-03-29T00:13:59.328Z,4.95
2023-03-29T00:16:26.079Z,4.96
2023-03-29T00:18:52.571Z,4.97
2023-03-29T00:21:19.064Z,4.96
2023-03-29T00:23:45.739Z,4.97
2023-03-29T00:26:12.403Z,4.97
2023-03-29T00:28:38.945Z,4.98
2023-03-29T00:31:08.492Z,4.97
2023-03-29T00:33:35.121Z,4.98
2023-03-29T00:36:01.950Z,4.97
2023-03-29T00:38:28.710Z,4.97
2023-03-29T00:40:55.193Z,4.99
2023-03-29T00:43:21.781Z,5.00
2023-03-29T00:45:48.723Z,5.00
2023-03-29T00:48:22.213Z,5.01
2023-03-29T00:51:01.613Z,5.03
2023-03-29T00:53:38.479Z,5.03
2023-03-29T00:56:24.165Z,5.04
2023-03-29T00:59:11.693Z,5.05
2023-03-29T01:01:58.556Z,5.07
2023-03-29T01:04:37.588Z,5.08
2023-03-29T01:07:18.031Z,5.11
2023-03-29T01:09:52.763Z,5.13
2023-03-29T01:12:23.614Z,5.14
2023-03-29T01:15:08.785Z,5.17
2023-03-29T01:17:35.517Z,5.19
2023-03-29T01:20:14.185Z,5.20
2023-03-29T01:22:51.334Z,5.21
2023-03-29T01:25:48.875Z,5.24
2023-03-29T01:28:21.179Z,5.26
2023-03-29T01:31:07.282Z,5.29
2023-03-29T01:33:52.064Z,5.30
2023-03-29T01:36:24.916Z,5.33
2023-03-29T01:38:56.629Z,5.36
2023-03-29T01:41:35.246Z,5.40
2023-03-29T01:44:07.261Z,5.42
2023-03-29T01:46:52.354Z,5.45
2023-03-29T01:49:45.269Z,5.47
2023-03-29T01:52:27.455Z,5.48
2023-03-29T01:55:00.573Z,5.50
2023-03-29T01:57:27.322Z,5.52
2023-03-29T01:59:55.991Z,5.53
2023-03-29T02:02:27.792Z,5.54
2023-03-29T02:04:56.022Z,5.56
2023-03-29T02:07:26.706Z,5.58
2023-03-29T02:09:54.153Z,5.58
2023-03-29T02:12:21.237Z,5.60
2023-03-29T02:14:47.714Z,5.60
2023-03-29T02:17:22.524Z,5.59
2023-03-29T02:19:54.974Z,5.60
2023-03-29T02:22:28.774Z,5.61
2023-03-29T02:24:59.237Z,5.62
2023-03-29T02:27:29.083Z,5.63
2023-03-29T02:29:57.201Z,5.63
2023-03-29T02:32:35.553Z,5.64
2023-03-29T02:35:12.791Z,5.64
2023-03-29T02:37:44.136Z,5.66
2023-03-29T02:40:13.565Z,5.67
2023-03-29T02:42:43.197Z,5.69
2023-03-29T02:45:12.475Z,5.71
2023-03-29T02:47:45.228Z,5.69
2023-03-29T02:50:12.162Z,5.70
2023-03-29T02:52:48.673Z,5.70
2023-03-29T02:55:18.617Z,5.70
2023-03-29T02:57:45.511Z,5.71
2023-03-29T03:00:14.535Z,5.71
2023-03-29T03:02:41.878Z,5.70
2023-03-29T03:05:09.759Z,5.70
2023-03-29T03:07:36.333Z,5.73
2023-03-29T03:12:30.909Z,5.72
2023-03-29T03:14:58.303Z,5.72
2023-03-29T03:17:25.254Z,5.73
2023-03-29T03:19:53.134Z,5.72
2023-03-29T03:22:20.380Z,5.72
2023-03-29T03:24:47.138Z,5.72
2023-03-29T03:27:13.689Z,5.72
2023-03-29T03:29:41.418Z,5.73
2023-03-29T03:32:37.406Z,5.73
2023-03-29T03:35:22.737Z,5.77
2023-03-29T03:37:49.224Z,5.74
2023-03-29T03:40:17.463Z,5.75
2023-03-29T03:42:44.457Z,5.74
2023-03-29T03:45:12.242Z,5.74
2023-03-29T03:47:51.052Z,5.74
2023-03-29T03:50:34.335Z,5.74
2023-03-29T03:53:01.371Z,5.74
2023-03-29T03:55:40.991Z,5.74
2023-03-29T03:58:11.569Z,5.74
2023-03-29T04:00:38.437Z,5.76
2023-03-29T04:03:21.626Z,5.76
2023-03-29T04:05:48.692Z,5.77
2023-03-29T04:08:17.029Z,5.77
2023-03-29T04:11:04.579Z,5.77
2023-03-29T04:13:37.057Z,5.77
2023-03-29T04:16:27.696Z,5.77
2023-03-29T04:18:56.474Z,5.78
2023-03-29T04:21:23.981Z,5.78
2023-03-29T04:23:50.442Z,5.79
2023-03-29T04:26:18.014Z,5.80
2023-03-29T04:29:04.835Z,5.79
2023-03-29T04:31:45.936Z,5.80
2023-03-29T04:34:21.990Z,5.79
2023-03-29T04:36:53.225Z,5.81
2023-03-29T04:39:31.725Z,5.81
2023-03-29T04:41:58.591Z,5.80
2023-03-29T04:44:27.990Z,5.82
2023-03-29T04:46:56.852Z,5.82
2023-03-29T04:49:42.889Z,5.83
2023-03-29T04:52:19.140Z,5.83
2023-03-29T04:54:45.679Z,5.83
2023-03-29T04:57:20.468Z,5.83
2023-03-29T04:59:55.022Z,5.84
2023-03-29T05:02:40.105Z,5.83
2023-03-29T05:05:06.930Z,5.86
2023-03-29T05:07:33.467Z,5.86
2023-03-29T05:09:59.933Z,5.87
2023-03-29T05:12:26.842Z,5.88
2023-03-29T05:14:54.352Z,5.88
2023-03-29T05:17:26.680Z,5.88
2023-03-29T05:19:56.176Z,5.89
2023-03-29T05:22:24.906Z,5.89
2023-03-29T05:24:52.849Z,5.91
2023-03-29T05:27:22.749Z,5.91
2023-03-29T05:30:00.439Z,5.94
2023-03-29T05:32:47.821Z,5.94
2023-03-29T05:35:17.549Z,5.96
2023-03-29T05:37:47.144Z,5.96
2023-03-29T05:40:13.728Z,5.98
2023-03-29T05:43:12.066Z,5.99
2023-03-29T05:45:39.345Z,6.01
2023-03-29T05:48:06.262Z,6.02
2023-03-29T05:50:33.580Z,6.04
2023-03-29T05:53:00.438Z,6.04
2023-03-29T05:55:27.958Z,6.06
2023-03-29T05:57:54.525Z,6.08
2023-03-29T06:00:25.683Z,6.11
2023-03-29T06:03:13.580Z,6.13
2023-03-29T06:05:42.580Z,6.15
2023-03-29T06:08:09.897Z,6.17
2023-03-29T06:11:05.162Z,6.21
2023-03-29T06:13:55.363Z,6.23
2023-03-29T06:16:22.432Z,6.25
2023-03-29T06:18:49.087Z,6.28
2023-03-29T06:21:15.588Z,6.30
2023-03-29T06:23:42.625Z,6.36
2023-03-29T06:26:10.560Z,6.38
2023-03-29T06:28:37.783Z,6.41
2023-03-29T06:31:05.236Z,6.44
2023-03-29T06:33:38.028Z,6.49
2023-03-29T06:36:16.976Z,6.54
2023-03-29T06:38:45.853Z,6.61
2023-03-29T06:41:32.891Z,6.67
2023-03-29T06:44:22.423Z,6.73
2023-03-29T06:47:01.418Z,6.77
2023-03-29T06:49:28.088Z,6.82
2023-03-29T06:52:09.462Z,6.86
2023-03-29T06:54:36.106Z,6.92
2023-03-29T06:57:05.448Z,6.98
2023-03-29T06:59:34.524Z,7.05
2023-03-29T07:02:13.110Z,7.13
2023-03-29T07:05:01.367Z,7.17
2023-03-29T07:07:43.901Z,7.22
2023-03-29T07:10:32.961Z,7.34
2023-03-29T07:13:02.281Z,7.50
2023-03-29T07:15:29.466Z,7.59
2023-03-29T07:18:22.198Z,7.66
2023-03-29T07:20:49.183Z,7.69
2023-03-29T07:23:16.038Z,7.75
2023-03-29T07:25:44.703Z,7.82
2023-03-29T07:28:11.292Z,7.86
2023-03-29T07:30:38.449Z,7.87
2023-03-29T07:33:13.458Z,7.89
2023-03-29T07:35:47.793Z,7.90
2023-03-29T07:38:15.625Z,7.94
2023-03-29T07:40:47.327Z,8.00
2023-03-29T07:43:34.352Z,8.04
2023-03-29T07:46:04.815Z,8.11
2023-03-29T07:48:33.758Z,8.19
2023-03-29T07:51:05.169Z,8.27
2023-03-29T07:53:54.722Z,8.35
2023-03-29T07:56:47.762Z,8.40
2023-03-29T07:59:33.197Z,8.47
2023-03-29T08:02:07.389Z,8.54
2023-03-29T08:04:38.284Z,8.60
2023-03-29T08:07:27.963Z,8.66
2023-03-29T08:10:03.842Z,8.74
2023-03-29T08:13:00.850Z,8.78
2023-03-29T08:15:39.782Z,8.75
2023-03-29T08:18:18.158Z,8.79
2023-03-29T08:20:44.940Z,8.86
2023-03-29T08:23:11.443Z,8.94
2023-03-29T08:25:58.107Z,8.99
2023-03-29T08:28:25.962Z,9.09
2023-03-29T08:30:52.700Z,9.19
2023-03-29T08:33:19.702Z,9.22
2023-03-29T08:35:54.080Z,9.32
2023-03-29T08:38:27.736Z,9.39
2023-03-29T08:40:55.839Z,9.42
2023-03-29T08:43:46.821Z,9.46
2023-03-29T08:46:35.865Z,9.52
2023-03-29T08:49:22.381Z,9.60
2023-03-29T08:51:56.563Z,9.62
2023-03-29T08:54:29.810Z,9.63
2023-03-29T08:57:28.069Z,9.68
2023-03-29T09:00:06.666Z,9.73
2023-03-29T09:02:37.500Z,9.77
2023-03-29T09:05:37.693Z,9.81
2023-03-29T09:08:21.213Z,9.86
2023-03-29T09:11:12.527Z,9.91
2023-03-29T09:13:59.348Z,9.88
2023-03-29T09:16:49.346Z,9.91
2023-03-29T09:19:37.792Z,9.97
2023-03-29T09:22:46.535Z,9.97
2023-03-29T09:25:29.211Z,10.09
2023-03-29T09:28:10.376Z,10.18
2023-03-29T09:31:15.356Z,10.34
2023-03-29T09:33:52.190Z,10.44
2023-03-29T09:36:28.418Z,10.58
2023-03-29T09:38:55.639Z,10.71
2023-03-29T09:41:42.609Z,10.78
2023-03-29T09:46:53.917Z,10.85
2023-03-29T09:49:31.275Z,10.89
2023-03-29T09:52:05.551Z,11.02
2023-03-29T09:54:32.703Z,11.09
2023-03-29T09:57:26.024Z,11.02
2023-03-29T09:59:52.988Z,11.02
2023-03-29T10:02:21.165Z,11.02
2023-03-29T10:05:00.546Z,11.01
2023-03-29T10:07:40.233Z,11.03
2023-03-29T10:10:10.373Z,11.13
2023-03-29T10:12:37.390Z,11.22
2023-03-29T10:15:05.868Z,11.35
2023-03-29T10:17:40.831Z,11.44
2023-03-29T10:20:12.982Z,11.64
2023-03-29T10:22:41.093Z,11.62
2023-03-29T10:25:17.409Z,11.68
2023-03-29T10:27:46.030Z,11.75
2023-03-29T10:30:20.195Z,11.77
2023-03-29T10:32:47.256Z,11.85
2023-03-29T10:35:33.191Z,11.94
2023-03-29T10:38:04.679Z,11.96
2023-03-29T10:40:34.208Z,11.94
2023-03-29T10:43:29.691Z,11.91
2023-03-29T10:46:05.161Z,11.81
2023-03-29T10:48:34.508Z,11.80
2023-03-29T10:51:02.553Z,11.86
2023-03-29T10:53:32.909Z,11.78
2023-03-29T10:56:29.870Z,11.77
2023-03-29T10:59:29.764Z,11.76
2023-03-29T11:02:18.226Z,11.86
2023-03-29T11:04:49.085Z,11.87
2023-03-29T11:07:15.467Z,11.95
2023-03-29T11:09:52.735Z,12.03
2023-03-29T11:12:28.373Z,12.10
2023-03-29T11:15:19.994Z,12.08
2023-03-29T11:18:16.030Z,11.96
2023-03-29T11:21:10.715Z,11.96
2023-03-29T11:23:41.467Z,11.94
2023-03-29T11:26:20.766Z,11.97
2023-03-29T11:29:02.568Z,12.11
2023-03-29T11:31:41.320Z,12.15
2023-03-29T11:34:35.242Z,12.18
2023-03-29T11:37:17.135Z,12.32
2023-03-29T11:40:10.552Z,12.39
2023-03-29T11:42:43.406Z,12.23
2023-03-29T11:45:16.658Z,12.21
2023-03-29T11:47:46.714Z,12.42
2023-03-29T11:50:25.320Z,12.51
2023-03-29T11:52:58.628Z,12.51
2023-03-29T11:55:30.362Z,12.61
2023-03-29T11:58:03.952Z,12.56
2023-03-29T12:00:37.462Z,12.57
2023-03-29T12:03:21.166Z,12.67
2023-03-29T12:05:58.950Z,12.68
2023-03-29T12:08:38.306Z,12.60
2023-03-29T12:11:27.371Z,12.39
2023-03-29T12:13:58.711Z,12.34
2023-03-29T12:16:48.895Z,12.34
2023-03-29T12:19:31.538Z,12.33
2023-03-29T12:22:00.978Z,12.40
2023-03-29T12:24:32.395Z,12.32
2023-03-29T12:27:20.165Z,12.42
2023-03-29T12:30:08.606Z,12.46
2023-03-29T12:33:15.802Z,12.36
2023-03-29T12:36:17.310Z,12.29
2023-03-29T12:39:05.304Z,12.21
2023-03-29T12:41:53.273Z,12.15
2023-03-29T12:44:39.589Z,12.10
2023-03-29T12:47:25.289Z,12.05
2023-03-29T12:49:56.505Z,12.06
2023-03-29T12:52:34.219Z,12.09
2023-03-29T12:55:04.442Z,12.08
2023-03-29T12:57:44.928Z,12.06
2023-03-29T13:00:22.402Z,12.09
2023-03-29T13:03:19.966Z,12.22
2023-03-29T13:05:46.924Z,12.22
2023-03-29T13:08:26.098Z,12.22
2023-03-29T13:10:56.537Z,12.25
2023-03-29T13:13:40.241Z,12.35
2023-03-29T13:16:18.321Z,12.42
2023-03-29T13:19:06.645Z,12.54
2023-03-29T13:22:04.135Z,12.69
2023-03-29T13:24:49.336Z,12.81
2023-03-29T13:27:26.035Z,12.94
2023-03-29T13:30:15.577Z,13.01
2023-03-29T13:32:54.714Z,12.95
2023-03-29T13:35:36.903Z,12.94
2023-03-29T13:38:19.542Z,12.93
2023-03-29T13:40:52.796Z,12.93
2023-03-29T13:43:19.280Z,12.94
2023-03-29T13:46:04.241Z,13.05
2023-03-29T13:48:34.832Z,13.05
2023-03-29T13:51:21.767Z,13.00
2023-03-29T13:54:10.668Z,13.00
2023-03-29T13:56:54.995Z,13.14
2023-03-29T13:59:35.470Z,13.17
2023-03-29T14:02:04.580Z,13.23
2023-03-29T14:04:48.355Z,13.36
2023-03-29T14:07:15.413Z,13.32
2023-03-29T14:09:45.926Z,13.37
2023-03-29T14:12:15.234Z,13.41
2023-03-29T14:14:57.817Z,13.42
2023-03-29T14:17:25.772Z,13.38
2023-03-29T14:19:57.901Z,13.48
2023-03-29T14:22:24.603Z,13.49
2023-03-29T14:24:53.669Z,13.47
2023-03-29T14:27:21.441Z,13.47
2023-03-29T14:29:51.051Z,13.54
2023-03-29T14:32:27.378Z,13.65
2023-03-29T14:34:53.882Z,13.69
2023-03-29T14:37:26.426Z,13.74
2023-03-29T14:39:53.919Z,13.73
2023-03-29T14:42:25.277Z,13.76
2023-03-29T14:45:04.081Z,13.76
2023-03-29T14:47:32.958Z,13.75
2023-03-29T14:50:01.516Z,13.80
2023-03-29T14:52:30.421Z,13.89
2023-03-29T14:55:00.029Z,13.97
2023-03-29T14:57:32.551Z,14.07
2023-03-29T15:00:01.201Z,14.02
2023-03-29T15:02:30.731Z,14.05
2023-03-29T15:04:59.967Z,14.11
2023-03-29T15:07:28.280Z,14.19
2023-03-29T15:09:57.428Z,14.20
2023-03-29T15:12:24.714Z,14.23
2023-03-29T15:14:52.672Z,14.29
2023-03-29T15:17:36.003Z,14.27
2023-03-29T15:20:23.114Z,14.23
2023-03-29T15:23:07.624Z,14.20
2023-03-29T15:25:37.216Z,14.20
2023-03-29T15:28:04.219Z,14.20
2023-03-29T15:30:44.233Z,14.24
2023-03-29T15:33:24.950Z,14.32
2023-03-29T15:35:53.933Z,14.30
2023-03-29T15:38:27.523Z,14.25
2023-03-29T15:40:57.081Z,14.29
2023-03-29T15:43:24.448Z,14.24
2023-03-29T15:45:51.175Z,14.17
2023-03-29T15:48:25.710Z,14.14
2023-03-29T15:50:53.083Z,14.10
2023-03-29T15:53:23.618Z,14.07
2023-03-29T15:55:52.899Z,14.09
2023-03-29T15:58:25.667Z,14.12
2023-03-29T16:00:58.999Z,14.11
2023-03-29T16:03:27.240Z,14.09
2023-03-29T16:05:56.715Z,14.12
2023-03-29T16:08:24.969Z,14.16
2023-03-29T16:10:51.689Z,14.17
2023-03-29T16:13:18.171Z,14.14
2023-03-29T16:15:45.800Z,14.12
2023-03-29T16:18:12.253Z,14.09
2023-03-29T16:20:39.150Z,14.08
2023-03-29T16:23:09.693Z,14.04
2023-03-29T16:25:38.325Z,14.00
2023-03-29T16:28:05.492Z,13.97
2023-03-29T16:30:32.969Z,14.01
2023-03-29T16:32:59.571Z,13.97
2023-03-29T16:35:30.284Z,13.95
2023-03-29T16:37:56.939Z,13.93
2023-03-29T16:40:23.874Z,13.91
2023-03-29T16:42:51.250Z,13.87
2023-03-29T16:45:18.247Z,13.83
2023-03-29T16:47:44.856Z,13.78
2023-03-29T16:50:17.983Z,13.73
2023-03-29T16:52:45.198Z,13.71
2023-03-29T16:55:13.370Z,13.70
2023-03-29T16:57:40.136Z,13.65
2023-03-29T17:00:11.275Z,13.65
2023-03-29T17:02:37.799Z,13.62
2023-03-29T17:05:04.709Z,13.61
2023-03-29T17:07:31.189Z,13.60
2023-03-29T17:09:57.694Z,13.56
2023-03-29T17:12:24.340Z,13.54
2023-03-29T17:14:51.114Z,13.52
2023-03-29T17:17:17.606Z,13.53
2023-03-29T17:19:44.223Z,13.52
2023-03-29T17:22:10.685Z,13.50
2023-03-29T17:24:37.206Z,13.50
2023-03-29T17:27:03.814Z,13.46
2023-03-29T17:29:30.385Z,13.43
2023-03-29T17:31:56.839Z,13.42
2023-03-29T17:34:23.374Z,13.44
2023-03-29T17:36:53.165Z,13.41
2023-03-29T17:39:19.666Z,13.41
2023-03-29T17:41:47.291Z,13.39
2023-03-29T17:44:13.911Z,13.37
2023-03-29T17:46:40.598Z,13.33
2023-03-29T17:49:07.259Z,13.31
2023-03-29T17:51:33.738Z,13.29
2023-03-29T17:54:00.378Z,13.26
2023-03-29T17:56:26.845Z,13.21
2023-03-29T17:58:53.419Z,13.18
2023-03-29T18:01:19.962Z,13.15
2023-03-29T18:03:50.649Z,13.10
2023-03-29T18:06:20.125Z,13.07
2023-03-29T18:08:47.177Z,13.01
2023-03-29T18:11:16.718Z,12.96
2023-03-29T18:13:44.379Z,12.92
2023-03-29T18:16:11.346Z,12.90
2023-03-29T18:18:38.609Z,12.89
2023-03-29T18:21:06.904Z,12.86
2023-03-29T18:23:33.850Z,12.82
2023-03-29T18:26:04.324Z,12.79
2023-03-29T18:28:31.169Z,12.75
2023-03-29T18:30:58.066Z,12.72
2023-03-29T18:33:24.943Z,12.67
2023-03-29T18:35:51.855Z,12.62
2023-03-29T18:38:21.349Z,12.55
2023-03-29T18:40:48.676Z,12.50
2023-03-29T18:43:15.622Z,12.48
2023-03-29T18:45:43.702Z,12.46
2023-03-29T18:48:10.875Z,12.45
2023-03-29T18:50:38.639Z,12.42
2023-03-29T18:53:05.148Z,12.41
2023-03-29T18:55:31.647Z,12.41
2023-03-29T18:57:58.072Z,12.38
2023-03-29T19:00:25.062Z,12.32
2023-03-29T19:02:51.644Z,12.30
2023-03-29T19:05:18.341Z,12.26
2023-03-29T19:07:44.874Z,12.24
2023-03-29T19:10:12.157Z,12.21
2023-03-29T19:12:38.712Z,12.16
2023-03-29T19:15:05.823Z,12.13
2023-03-29T19:17:32.313Z,12.09
2023-03-29T19:19:59.247Z,12.08
2023-03-29T19:22:26.532Z,12.03
2023-03-29T19:24:53.083Z,12.01
2023-03-29T19:27:19.657Z,11.98
2023-03-29T19:29:46.145Z,11.97
2023-03-29T19:32:12.634Z,11.95
2023-03-29T19:34:39.153Z,11.93
2023-03-29T19:37:05.723Z,11.92
2023-03-29T19:39:32.214Z,11.89
2023-03-29T19:41:58.662Z,11.88
2023-03-29T19:44:25.243Z,11.86
2023-03-29T19:46:52.052Z,11.84
2023-03-29T19:49:18.685Z,11.84
2023-03-29T19:51:45.261Z,11.82
2023-03-29T19:54:14.747Z,11.82
2023-03-29T19:56:42.851Z,11.81
2023-03-29T19:59:11.120Z,11.80
2023-03-29T20:01:39.558Z,11.80
2023-03-29T20:04:06.233Z,11.80
2023-03-29T20:06:32.751Z,11.78
2023-03-29T20:08:59.173Z,11.77
2023-03-29T20:11:25.957Z,11.75
2023-03-29T20:13:52.489Z,11.73
2023-03-29T20:16:19.570Z,11.69
2023-03-29T20:18:46.456Z,11.68
2023-03-29T20:21:16.400Z,11.65
2023-03-29T20:23:43.268Z,11.62
2023-03-29T20:26:10.484Z,11.61
2023-03-29T20:28:37.616Z,11.59
2023-03-29T20:31:06.667Z,11.58
2023-03-29T20:33:33.574Z,11.59
2023-03-29T20:36:00.241Z,11.58
2023-03-29T20:38:26.772Z,11.59
2023-03-29T20:40:53.590Z,11.59
2023-03-29T20:43:20.206Z,11.59
2023-03-29T20:45:53.268Z,11.60
2023-03-29T20:48:22.954Z,11.61
2023-03-29T20:50:50.029Z,11.64
2023-03-29T20:53:18.114Z,11.64
2023-03-29T20:55:44.758Z,11.68
2023-03-29T20:58:11.505Z,11.70
2023-03-29T21:00:38.210Z,11.70
2023-03-29T21:03:04.892Z,11.74
2023-03-29T21:05:33.363Z,11.76
2023-03-29T21:08:00.594Z,11.78
2023-03-29T21:10:28.190Z,11.75
2023-03-29T21:12:54.843Z,11.77
2023-03-29T21:15:21.352Z,11.73
2023-03-29T21:17:47.910Z,11.70
2023-03-29T21:20:15.546Z,11.71
2023-03-29T21:22:45.094Z,11.70
2023-03-29T21:25:15.378Z,11.73
2023-03-29T21:27:42.590Z,11.73
2023-03-29T21:30:10.256Z,11.74
2023-03-29T21:32:37.076Z,11.74
2023-03-29T21:35:03.871Z,11.70
2023-03-29T21:37:30.668Z,11.69
2023-03-29T21:39:57.117Z,11.66
2023-03-29T21:42:23.640Z,11.63
2023-03-29T21:44:50.266Z,11.62
2023-03-29T21:47:16.744Z,11.58
2023-03-29T21:49:43.201Z,11.57
2023-03-29T21:52:09.710Z,11.54
2023-03-29T21:54:36.498Z,11.52
2023-03-29T21:57:03.128Z,11.50
2023-03-29T21:59:29.635Z,11.48
2023-03-29T22:01:56.207Z,11.45
2023-03-29T22:04:35.316Z,11.43
2023-03-29T22:07:03.689Z,11.43
2023-03-29T22:09:31.565Z,11.41
2023-03-29T22:11:59.610Z,11.39
2023-03-29T22:14:28.420Z,11.39
2023-03-29T22:16:54.870Z,11.38
2023-03-29T22:19:21.876Z,11.38
2023-03-29T22:21:48.651Z,11.38
2023-03-29T22:24:16.081Z,11.36
2023-03-29T22:26:44.858Z,11.33
2023-03-29T22:29:11.419Z,11.30
2023-03-29T22:31:39.304Z,11.27
2023-03-29T22:34:06.082Z,11.26
2023-03-29T22:36:36.042Z,11.28
2023-03-29T22:39:03.060Z,11.28
2023-03-29T22:41:29.532Z,11.29
2023-03-29T22:43:58.248Z,11.29
2023-03-29T22:46:25.368Z,11.26
2023-03-29T22:48:52.368Z,11.27
2023-03-29T22:51:19.946Z,11.29
2023-03-29T22:53:47.079Z,11.30
2023-03-29T22:56:14.493Z,11.34
2023-03-29T22:58:41.301Z,11.29
2023-03-29T23:01:08.116Z,11.30
2023-03-29T23:03:35.040Z,11.29
2023-03-29T23:06:04.460Z,11.29
2023-03-29T23:08:32.701Z,11.28
2023-03-29T23:10:59.552Z,11.28
2023-03-29T23:13:28.499Z,11.30
2023-03-29T23:15:58.737Z,11.31
2023-03-29T23:18:27.729Z,11.30
2023-03-29T23:20:56.546Z,11.32
2023-03-29T23:23:25.069Z,11.35
2023-03-29T23:25:52.630Z,11.38
2023-03-29T23:28:23.708Z,11.41
2023-03-29T23:31:02.699Z,11.43
2023-03-29T23:33:33.288Z,11.44
2023-03-29T23:36:00.882Z,11.45
2023-03-29T23:38:27.715Z,11.48
2023-03-29T23:41:00.695Z,11.48
2023-03-29T23:43:35.728Z,11.50
2023-03-29T23:46:05.565Z,11.50
2023-03-29T23:48:32.659Z,11.52
2023-03-29T23:50:59.073Z,11.52
2023-03-29T23:53:28.460Z,11.58
2023-03-29T23:56:05.792Z,11.64
2023-03-29T23:58:35.175Z,11.67
